Kemah, TX

3:07 PM CDT on July 05, 2015 (GMT -0500)
Waterford Harbor | | Change Station
CLOSE
Current Station
Personal Weather Station
Location: Kemah, TX
Elevation: 30 ft
Nearby Weather Stations

Elev 30 ft 29.54 °N, 95.04 °W | Updated 14 minutes ago

Partly Cloudy
Partly Cloudy
93.7 °F
Feels Like 113 °F
N
4.2
Wind Variable Wind from ENE

Today
High -- | Low -- °F
--% Chance of Precip.
Yesterday
High -- | Low -- °F
Precip. -- in
6:25 AM 8:23 PM
Waning Gibbous, 82% visible
Pressure 30.06 in
Visibility 10.0 miles
Clouds Scattered Clouds 3500 ft
Mostly Cloudy 6000 ft
Mostly Cloudy 25000 ft
Heat Index 113 °F
Dew Point 80 °F
Humidity 65%
Rainfall 0.00 in
Snow Depth Not available.
UV 6 out of 12
Pollen 3.50 out of 12
Air Quality Not available.
Flu Activity Not available.
METAR KEFD 051950Z 17010KT 10SM SCT035 BKN060 BKN250 33/23 A3006

More Conditions Fewer Conditions

Pressure 30.06 in
Visibility 10.0 miles
Clouds Scattered Clouds 3500 ft
Mostly Cloudy 6000 ft
Mostly Cloudy 25000 ft
Heat Index 113 °F
Dew Point 80 °F
Humidity 65%
Rainfall 0.00 in
Snow Depth Not available.
UV 6 out of 12
Pollen 3.50 out of 12
Air Quality Not available.
Flu Activity Not available.
METAR KEFD 051950Z 17010KT 10SM SCT035 BKN060 BKN250 33/23 A3006

More Conditions Fewer Conditions

10-Day Weather Forecast

×

Almanac

Astronomy

Jul. 05, 2015 Rise Set
Actual Time
Civil Twilight
Nautical Twilight
Astronomical Twilight
Moon
Length of Visible Light
Length of Day
Tomorrow will be .
, % of the Moon is Illuminated

Today's Extremes

State Highs State Lows

Community

WunderPhotos

Upload Photos

1,835,371 photos uploaded!

WunderBlogs® & News

Nearby

Air Quality

  Air Quality AQ Index Pollutant
Not available.

Snow Depth

Station Depth Elevation

Earthquake Activity

City Distance Mag. Time & Date
Minimum magnitude displayed is 2.5.

Coastal Water Temperatures

Place Temperature

Stations

Nearby Weather Stations

Station Location Temp. Windchill Dew Point Humidity Wind Precip. Elev Updated Type